createdAt,value
2022-09-28T00:00:08.017Z,2.15
2022-09-28T00:02:09.636Z,2.45
2022-09-28T00:04:11.505Z,3.28
2022-09-28T00:06:16.005Z,3.30
2022-09-28T00:08:17.467Z,2.65
2022-09-28T00:10:19.437Z,3.38
2022-09-28T00:12:21.756Z,3.60
2022-09-28T00:14:24.381Z,3.63
2022-09-28T00:16:29.053Z,2.05
2022-09-28T00:18:31.749Z,5.53
2022-09-28T00:20:33.229Z,2.10
2022-09-28T00:22:34.652Z,2.88
2022-09-28T00:24:36.083Z,2.40
2022-09-28T00:26:38.380Z,8.88
2022-09-28T00:28:39.834Z,3.75
2022-09-28T00:30:41.286Z,3.55
2022-09-28T00:32:42.854Z,4.55
2022-09-28T00:34:48.860Z,5.53
2022-09-28T00:36:50.365Z,3.28
2022-09-28T00:38:52.299Z,5.32
2022-09-28T00:40:54.005Z,2.47
2022-09-28T00:42:55.803Z,3.08
2022-09-28T00:44:58.665Z,4.60
2022-09-28T00:47:42.180Z,4.18
2022-09-28T00:50:01.802Z,6.53
2022-09-28T00:52:06.768Z,7.03
2022-09-28T00:54:10.138Z,2.80
2022-09-28T00:56:17.410Z,9.27
2022-09-28T00:58:27.446Z,2.80
2022-09-28T01:00:29.045Z,3.13
2022-09-28T01:02:31.309Z,2.45
2022-09-28T01:04:32.847Z,2.90
2022-09-28T01:06:38.029Z,3.38
2022-09-28T01:08:39.811Z,3.55
2022-09-28T01:10:43.482Z,4.10
2022-09-28T01:12:44.955Z,5.38
2022-09-28T01:14:47.915Z,3.53
2022-09-28T01:16:56.561Z,3.22
2022-09-28T01:19:36.735Z,2.92
2022-09-28T01:21:52.312Z,3.10
2022-09-28T01:23:59.532Z,2.88
2022-09-28T01:26:33.407Z,2.70
2022-09-28T01:28:34.984Z,2.60
2022-09-28T01:30:46.095Z,2.83
2022-09-28T01:32:54.598Z,2.67
2022-09-28T01:34:58.493Z,4.60
2022-09-28T01:37:04.601Z,4.28
2022-09-28T01:39:12.523Z,2.83
2022-09-28T01:41:17.728Z,2.73
2022-09-28T01:43:28.505Z,3.83
2022-09-28T01:45:42.617Z,3.10
2022-09-28T01:47:46.751Z,3.42
2022-09-28T01:49:58.423Z,3.40
2022-09-28T01:52:20.883Z,3.10
2022-09-28T01:54:46.933Z,3.05
2022-09-28T01:56:59.602Z,9.00
2022-09-28T01:59:11.283Z,2.95
2022-09-28T02:01:24.569Z,2.78
2022-09-28T02:03:51.645Z,3.00
2022-09-28T02:06:01.677Z,3.40
2022-09-28T02:08:13.300Z,8.38
2022-09-28T02:10:21.849Z,4.15
2022-09-28T02:12:34.074Z,3.47
2022-09-28T02:14:40.671Z,6.32
2022-09-28T02:16:43.448Z,3.10
2022-09-28T02:18:46.013Z,3.53
2022-09-28T02:20:56.938Z,3.40
2022-09-28T02:23:01.398Z,4.97
2022-09-28T02:25:20.466Z,4.32
2022-09-28T02:27:30.691Z,5.90
2022-09-28T02:29:32.152Z,5.50
2022-09-28T02:31:33.939Z,7.50
2022-09-28T02:33:42.245Z,3.80
2022-09-28T02:35:43.987Z,4.47
2022-09-28T02:37:46.203Z,5.75
2022-09-28T02:39:47.636Z,6.28
2022-09-28T02:42:07.868Z,4.65
2022-09-28T02:44:24.381Z,3.85
2022-09-28T02:46:50.406Z,4.10
2022-09-28T02:49:20.862Z,3.88
2022-09-28T02:51:45.863Z,4.53
2022-09-28T02:54:05.709Z,4.13
2022-09-28T02:56:19.673Z,4.00
2022-09-28T02:58:41.313Z,4.13
2022-09-28T03:00:57.335Z,4.35
2022-09-28T03:03:20.550Z,6.22
2022-09-28T03:06:00.382Z,5.20
2022-09-28T03:08:03.662Z,5.90
2022-09-28T03:10:17.648Z,6.93
2022-09-28T03:12:23.519Z,4.72
2022-09-28T03:14:25.313Z,4.72
2022-09-28T03:16:27.622Z,5.63
2022-09-28T03:18:29.104Z,5.35
2022-09-28T03:20:32.218Z,6.07
2022-09-28T03:22:33.645Z,5.07
2022-09-28T03:24:35.149Z,5.88
2022-09-28T03:26:40.279Z,4.95
2022-09-28T03:28:43.464Z,5.18
2022-09-28T03:30:44.892Z,9.25
2022-09-28T03:32:46.300Z,9.55
2022-09-28T03:34:47.745Z,5.32
2022-09-28T03:36:49.187Z,5.63
2022-09-28T03:38:55.486Z,5.53
2022-09-28T03:40:59.097Z,5.85
2022-09-28T03:43:01.383Z,6.75
2022-09-28T03:45:03.072Z,5.78
2022-09-28T03:47:04.535Z,6.50
2022-09-28T03:49:06.041Z,6.93
2022-09-28T03:51:09.302Z,7.05
2022-09-28T03:53:10.795Z,6.20
2022-09-28T03:55:12.451Z,7.10
2022-09-28T03:57:13.909Z,6.60
2022-09-28T03:59:15.642Z,6.93
2022-09-28T04:01:18.322Z,7.05
2022-09-28T04:03:19.946Z,6.82
2022-09-28T04:05:21.429Z,7.95
2022-09-28T04:07:24.089Z,6.68
2022-09-28T04:09:27.542Z,6.55
2022-09-28T04:11:38.524Z,6.78
2022-09-28T04:13:50.520Z,6.95
2022-09-28T04:15:54.214Z,6.88
2022-09-28T04:17:55.653Z,7.22
2022-09-28T04:19:57.758Z,7.07
2022-09-28T04:21:59.325Z,7.18
2022-09-28T04:24:00.946Z,7.22
2022-09-28T04:26:04.477Z,5.50
2022-09-28T04:28:24.596Z,6.25
2022-09-28T04:30:26.487Z,5.22
2022-09-28T04:32:27.963Z,5.00
2022-09-28T04:34:34.561Z,10.00
2022-09-28T04:36:37.299Z,3.93
2022-09-28T04:38:52.431Z,7.35
2022-09-28T04:40:54.864Z,6.60
2022-09-28T04:42:56.806Z,4.78
2022-09-28T04:44:58.847Z,4.05
2022-09-28T04:47:04.312Z,4.15
2022-09-28T04:49:06.806Z,4.43
2022-09-28T04:51:08.282Z,4.03
2022-09-28T04:53:09.722Z,4.70
2022-09-28T04:55:13.558Z,3.05
2022-09-28T04:57:15.121Z,2.95
2022-09-28T04:59:16.709Z,3.42
2022-09-28T05:01:19.914Z,3.63
2022-09-28T05:03:21.556Z,3.17
2022-09-28T05:05:23.010Z,3.50
2022-09-28T05:07:25.510Z,5.03
2022-09-28T05:09:26.921Z,4.05
2022-09-28T05:11:28.343Z,4.28
2022-09-28T05:13:30.905Z,8.40
2022-09-28T05:15:34.433Z,3.88
2022-09-28T05:17:35.870Z,3.90
2022-09-28T05:19:37.429Z,4.07
2022-09-28T05:21:39.107Z,4.68
2022-09-28T05:23:45.675Z,5.05
2022-09-28T05:25:47.142Z,9.18
2022-09-28T05:27:48.646Z,4.90
2022-09-28T05:29:50.123Z,5.53
2022-09-28T05:31:51.591Z,5.25
2022-09-28T05:33:53.611Z,4.40
2022-09-28T05:35:59.058Z,4.88
2022-09-28T05:38:04.588Z,6.57
2022-09-28T05:40:07.248Z,7.47
2022-09-28T05:42:08.669Z,7.32
2022-09-28T05:44:10.269Z,5.18
2022-09-28T05:46:11.858Z,6.03
2022-09-28T05:48:13.485Z,6.05
2022-09-28T05:50:16.289Z,7.03
2022-09-28T05:52:18.046Z,6.18
2022-09-28T05:54:19.542Z,10.25
2022-09-28T05:56:21.097Z,8.93
2022-09-28T05:58:22.569Z,4.97
2022-09-28T06:00:24.055Z,5.03
2022-09-28T06:02:25.904Z,5.25
2022-09-28T06:04:27.438Z,6.60
2022-09-28T06:06:28.974Z,6.00
2022-09-28T06:08:33.624Z,4.93
2022-09-28T06:10:35.090Z,4.90
2022-09-28T06:12:36.524Z,4.72
2022-09-28T06:14:38.921Z,7.03
2022-09-28T06:16:43.855Z,7.18
2022-09-28T06:18:45.538Z,6.20
2022-09-28T06:20:46.965Z,3.17
2022-09-28T06:22:52.077Z,3.55
2022-09-28T06:24:53.685Z,3.40
2022-09-28T06:26:55.115Z,3.72
2022-09-28T06:28:57.009Z,3.58
2022-09-28T06:31:00.868Z,3.42
2022-09-28T06:33:02.803Z,3.58
2022-09-28T06:35:04.579Z,4.82
2022-09-28T06:37:06.019Z,3.72
2022-09-28T06:39:07.630Z,2.85
2022-09-28T06:41:10.019Z,3.47
2022-09-28T06:43:14.993Z,2.90
2022-09-28T06:45:20.021Z,5.30
2022-09-28T06:47:21.475Z,4.65
2022-09-28T06:49:22.936Z,2.58
2022-09-28T06:51:25.052Z,3.30
2022-09-28T06:53:28.428Z,2.70
2022-09-28T06:55:30.228Z,2.40
2022-09-28T06:57:31.663Z,3.10
2022-09-28T06:59:33.125Z,2.80
2022-09-28T07:01:34.631Z,7.88
2022-09-28T07:03:36.134Z,3.03
2022-09-28T07:05:41.872Z,2.85
2022-09-28T07:07:44.693Z,2.78
2022-09-28T07:09:50.228Z,3.75
2022-09-28T07:11:53.890Z,2.33
2022-09-28T07:13:55.350Z,7.15
2022-09-28T07:15:59.445Z,3.47
2022-09-28T07:18:03.987Z,3.70
2022-09-28T07:20:17.387Z,2.65
2022-09-28T07:22:29.401Z,2.70
2022-09-28T07:24:36.039Z,3.40
2022-09-28T07:26:37.486Z,5.88
2022-09-28T07:28:40.439Z,7.82
2022-09-28T07:30:44.182Z,2.50
2022-09-28T07:32:45.834Z,2.78
2022-09-28T07:34:48.657Z,8.35
2022-09-28T07:36:50.297Z,7.47
2022-09-28T07:38:51.712Z,4.30
2022-09-28T07:41:11.448Z,3.03
2022-09-28T07:43:20.443Z,3.63
2022-09-28T07:45:25.215Z,2.38
2022-09-28T07:47:30.819Z,2.83
2022-09-28T07:51:36.746Z,2.65
2022-09-28T07:53:38.460Z,2.65
2022-09-28T07:55:39.879Z,2.92
2022-09-28T07:57:41.788Z,2.85
2022-09-28T07:59:43.728Z,3.28
2022-09-28T08:01:45.259Z,3.60
2022-09-28T08:03:48.086Z,2.70
2022-09-28T08:05:49.775Z,4.53
2022-09-28T08:07:52.933Z,4.38
2022-09-28T08:09:54.506Z,2.88
2022-09-28T08:11:56.086Z,2.20
2022-09-28T08:13:58.080Z,3.38
2022-09-28T08:16:03.864Z,3.55
2022-09-28T08:18:05.906Z,2.50
2022-09-28T08:20:26.808Z,3.42
2022-09-28T08:22:32.122Z,5.22
2022-09-28T08:24:33.546Z,2.28
2022-09-28T08:26:35.210Z,2.22
2022-09-28T08:28:36.934Z,4.60
2022-09-28T08:30:38.425Z,2.75
2022-09-28T08:32:41.546Z,3.22
2022-09-28T08:34:43.066Z,2.17
2022-09-28T08:36:44.474Z,2.10
2022-09-28T08:38:46.082Z,2.55
2022-09-28T08:40:59.485Z,2.10
2022-09-28T08:43:07.049Z,5.88
2022-09-28T08:45:14.760Z,1.95
2022-09-28T08:47:46.742Z,4.72
2022-09-28T08:49:50.298Z,5.05
2022-09-28T08:52:03.260Z,3.85
2022-09-28T08:54:11.919Z,3.00
2022-09-28T08:56:37.590Z,4.10
2022-09-28T08:58:44.431Z,3.38
2022-09-28T09:00:49.292Z,3.50
2022-09-28T09:02:50.912Z,3.53
2022-09-28T09:04:53.480Z,2.85
2022-09-28T09:07:22.437Z,2.72
2022-09-28T09:09:56.311Z,2.92
2022-09-28T09:12:18.811Z,4.97
2022-09-28T09:14:32.241Z,4.80
2022-09-28T09:16:42.550Z,3.60
2022-09-28T09:19:20.343Z,3.03
2022-09-28T09:21:21.835Z,7.60
2022-09-28T09:23:42.128Z,3.40
2022-09-28T09:25:54.975Z,7.40
2022-09-28T09:28:21.433Z,7.53
2022-09-28T09:30:25.169Z,8.02
2022-09-28T09:32:53.421Z,12.25
2022-09-28T09:35:05.594Z,13.85
2022-09-28T09:37:20.241Z,9.70
2022-09-28T09:39:33.752Z,7.00
2022-09-28T09:41:38.212Z,7.70
2022-09-28T09:43:59.798Z,6.65
2022-09-28T09:46:16.255Z,5.22
2022-09-28T09:48:26.193Z,7.28
2022-09-28T09:50:48.230Z,7.38
2022-09-28T09:52:57.764Z,8.65
2022-09-28T09:55:04.189Z,9.95
2022-09-28T09:57:19.621Z,9.57
2022-09-28T09:59:26.505Z,7.47
2022-09-28T10:01:35.060Z,10.95
2022-09-28T10:03:41.278Z,14.82
2022-09-28T10:05:47.983Z,12.38
2022-09-28T10:07:58.792Z,15.63
2022-09-28T10:10:02.185Z,13.55
2022-09-28T10:12:04.877Z,12.55
2022-09-28T10:14:08.182Z,13.98
2022-09-28T10:16:09.671Z,13.60
2022-09-28T10:18:14.033Z,13.75
2022-09-28T10:20:16.603Z,14.25
2022-09-28T10:22:23.021Z,12.95
2022-09-28T10:24:33.716Z,13.65
2022-09-28T10:26:42.596Z,16.65
2022-09-28T10:31:35.681Z,14.98
2022-09-28T10:33:38.736Z,15.27
2022-09-28T10:35:43.270Z,15.85
2022-09-28T10:37:47.682Z,14.20
2022-09-28T10:39:55.586Z,14.52
2022-09-28T10:42:00.425Z,13.13
2022-09-28T10:44:06.958Z,12.05
2022-09-28T10:46:12.234Z,14.80
2022-09-28T10:48:19.251Z,12.02
2022-09-28T10:50:24.564Z,13.77
2022-09-28T10:52:34.013Z,10.88
2022-09-28T10:54:37.052Z,9.80
2022-09-28T10:56:40.213Z,11.13
2022-09-28T10:58:42.823Z,10.77
2022-09-28T11:00:44.863Z,13.77
2022-09-28T11:02:46.591Z,10.77
2022-09-28T11:04:54.623Z,11.77
2022-09-28T11:09:31.175Z,9.63
2022-09-28T11:11:43.917Z,8.80
2022-09-28T11:13:55.752Z,9.18
2022-09-28T11:15:57.792Z,8.20
2022-09-28T11:18:25.975Z,8.23
2022-09-28T11:20:28.611Z,7.65
2022-09-28T11:22:33.150Z,7.45
2022-09-28T11:24:34.650Z,6.57
2022-09-28T11:26:42.853Z,6.90
2022-09-28T11:28:51.546Z,7.50
2022-09-28T11:33:02.384Z,7.80
2022-09-28T11:37:31.270Z,7.22
2022-09-28T11:39:47.570Z,7.55
2022-09-28T11:41:58.707Z,6.88
2022-09-28T11:44:03.170Z,7.63
2022-09-28T11:46:13.923Z,7.63
2022-09-28T11:48:22.172Z,6.32
2022-09-28T11:50:43.672Z,6.95
2022-09-28T11:52:50.864Z,4.18
2022-09-28T11:54:57.220Z,6.63
2022-09-28T11:57:03.620Z,4.55
2022-09-28T11:59:05.092Z,4.18
2022-09-28T12:01:25.329Z,3.90
2022-09-28T12:03:37.658Z,6.18
2022-09-28T12:05:44.813Z,8.75
2022-09-28T12:07:50.592Z,3.50
2022-09-28T12:09:59.392Z,7.50
2022-09-28T12:12:04.205Z,5.35
2022-09-28T12:14:13.931Z,5.80
2022-09-28T12:19:15.370Z,3.97
2022-09-28T12:21:32.195Z,4.88
2022-09-28T12:23:36.003Z,5.13
2022-09-28T12:25:46.227Z,4.75
2022-09-28T12:27:56.277Z,6.25
2022-09-28T12:30:15.315Z,5.95
2022-09-28T12:32:29.435Z,6.05
2022-09-28T12:34:31.348Z,9.82
2022-09-28T12:36:41.795Z,6.63
2022-09-28T12:38:54.128Z,6.63
2022-09-28T12:41:09.734Z,6.30
2022-09-28T12:43:36.413Z,6.22
2022-09-28T12:46:25.325Z,5.75
2022-09-28T12:48:42.034Z,5.55
2022-09-28T12:51:02.605Z,7.25
2022-09-28T12:53:29.609Z,8.25
2022-09-28T12:55:46.250Z,5.57
2022-09-28T12:57:58.877Z,6.90
2022-09-28T13:00:15.750Z,7.80
2022-09-28T13:02:48.172Z,6.15
2022-09-28T13:05:14.303Z,4.50
2022-09-28T13:07:15.717Z,6.80
2022-09-28T13:09:20.261Z,6.50
2022-09-28T13:11:41.549Z,5.70
2022-09-28T13:14:07.690Z,4.47
2022-09-28T13:16:18.833Z,6.95
2022-09-28T13:18:30.879Z,4.25
2022-09-28T13:20:32.338Z,3.80
2022-09-28T13:23:15.389Z,3.85
2022-09-28T13:25:20.530Z,8.43
2022-09-28T13:27:42.329Z,4.07
2022-09-28T13:29:44.372Z,4.95
2022-09-28T13:31:50.521Z,6.75
2022-09-28T13:33:52.940Z,5.28
2022-09-28T13:35:54.448Z,7.15
2022-09-28T13:38:17.483Z,4.75
2022-09-28T13:40:19.408Z,5.50
2022-09-28T13:42:42.218Z,4.20
2022-09-28T13:44:54.333Z,7.10
2022-09-28T13:47:25.588Z,4.03
2022-09-28T13:49:43.234Z,5.55
2022-09-28T13:51:59.875Z,4.83
2022-09-28T13:54:25.780Z,6.85
2022-09-28T13:56:38.067Z,3.45
2022-09-28T13:59:14.480Z,5.63
2022-09-28T14:01:21.017Z,3.90
2022-09-28T14:03:27.150Z,5.53
2022-09-28T14:05:52.039Z,5.05
2022-09-28T14:08:08.733Z,5.70
2022-09-28T14:10:25.890Z,3.33
2022-09-28T14:12:29.177Z,5.22
2022-09-28T14:14:49.080Z,4.47
2022-09-28T14:16:58.816Z,4.32
2022-09-28T14:19:00.213Z,2.47
2022-09-28T14:21:21.283Z,7.90
2022-09-28T14:23:25.404Z,2.58
2022-09-28T14:25:30.898Z,7.10
2022-09-28T14:27:44.332Z,2.50
2022-09-28T14:29:47.309Z,3.10
2022-09-28T14:31:48.795Z,2.80
2022-09-28T14:34:03.445Z,4.35
2022-09-28T14:36:42.868Z,2.50
2022-09-28T14:39:08.469Z,4.35
2022-09-28T14:41:28.536Z,4.75
2022-09-28T14:43:36.083Z,3.83
2022-09-28T14:45:38.829Z,2.53
2022-09-28T14:47:44.395Z,2.95
2022-09-28T14:49:47.649Z,4.45
2022-09-28T14:51:55.884Z,3.42
2022-09-28T14:54:17.935Z,3.10
2022-09-28T14:56:20.450Z,3.65
2022-09-28T14:58:26.657Z,5.82
2022-09-28T15:00:30.415Z,5.72
2022-09-28T15:02:36.040Z,5.32
2022-09-28T15:04:43.282Z,1.83
2022-09-28T15:06:49.645Z,1.55
2022-09-28T15:08:51.607Z,2.08
2022-09-28T15:10:56.573Z,2.33
2022-09-28T15:13:01.370Z,2.28
2022-09-28T15:15:08.406Z,9.15
2022-09-28T15:17:11.354Z,2.50
2022-09-28T15:19:23.595Z,2.00
2022-09-28T15:21:33.644Z,2.20
2022-09-28T15:23:39.098Z,3.95
2022-09-28T15:25:40.528Z,3.30
2022-09-28T15:27:42.074Z,3.33
2022-09-28T15:30:14.397Z,4.05
2022-09-28T15:32:26.402Z,2.95
2022-09-28T15:34:51.554Z,7.90
2022-09-28T15:36:56.380Z,3.97
2022-09-28T15:39:04.631Z,3.55
2022-09-28T15:41:07.729Z,4.95
2022-09-28T15:43:32.872Z,4.45
2022-09-28T15:45:38.090Z,3.72
2022-09-28T15:47:41.318Z,3.53
2022-09-28T15:49:45.717Z,3.50
2022-09-28T15:51:52.742Z,4.55
2022-09-28T15:54:00.257Z,8.38
2022-09-28T15:56:09.815Z,6.95
2022-09-28T15:58:22.756Z,4.60
2022-09-28T16:00:28.224Z,4.57
2022-09-28T16:02:29.759Z,4.72
2022-09-28T16:04:44.579Z,6.03
2022-09-28T16:07:05.233Z,4.43
2022-09-28T16:09:36.114Z,11.95
2022-09-28T16:11:45.114Z,7.18
2022-09-28T16:13:56.665Z,10.38
2022-09-28T16:15:59.838Z,5.72
2022-09-28T16:18:06.789Z,4.18
2022-09-28T16:20:32.050Z,4.63
2022-09-28T16:22:33.636Z,4.45
2022-09-28T16:24:38.865Z,4.82
2022-09-28T16:26:40.464Z,7.60
2022-09-28T16:28:45.909Z,5.40
2022-09-28T16:31:06.316Z,5.32
2022-09-28T16:33:29.259Z,7.38
2022-09-28T16:35:42.861Z,5.30
2022-09-28T16:37:45.433Z,7.55
2022-09-28T16:39:46.868Z,6.15
2022-09-28T16:41:55.624Z,10.65
2022-09-28T16:46:09.421Z,5.20
2022-09-28T16:48:19.368Z,9.13
2022-09-28T16:50:22.421Z,6.13
2022-09-28T16:52:42.426Z,6.13
2022-09-28T16:55:10.258Z,9.27
2022-09-28T16:57:19.239Z,6.45
2022-09-28T16:59:22.244Z,8.63
2022-09-28T17:01:24.618Z,12.00
2022-09-28T17:03:27.415Z,8.30
2022-09-28T17:05:29.454Z,8.57
2022-09-28T17:07:31.785Z,9.23
2022-09-28T17:09:33.833Z,8.88
2022-09-28T17:11:35.301Z,11.32
2022-09-28T17:13:37.432Z,9.68
2022-09-28T17:15:39.954Z,12.65
2022-09-28T17:17:41.866Z,9.75
2022-09-28T17:19:43.432Z,10.73
2022-09-28T17:21:45.108Z,9.32
2022-09-28T17:23:50.042Z,10.88
2022-09-28T17:25:53.679Z,9.57
2022-09-28T17:27:57.458Z,12.32
2022-09-28T17:29:58.916Z,10.10
2022-09-28T17:32:00.451Z,9.13
2022-09-28T17:34:01.932Z,10.30
2022-09-28T17:36:04.916Z,9.73
2022-09-28T17:38:06.486Z,9.20
2022-09-28T17:40:25.696Z,10.25
2022-09-28T17:42:27.173Z,12.02
2022-09-28T17:44:28.606Z,12.27
2022-09-28T17:46:33.182Z,11.23
2022-09-28T17:48:35.720Z,10.15
2022-09-28T17:50:37.325Z,10.07
2022-09-28T17:52:38.776Z,14.50
2022-09-28T17:54:40.190Z,13.55
2022-09-28T17:56:42.581Z,10.35
2022-09-28T17:58:44.029Z,13.85
2022-09-28T18:00:47.032Z,18.33
2022-09-28T18:02:48.699Z,11.70
2022-09-28T18:04:52.422Z,12.02
2022-09-28T18:06:54.305Z,16.05
2022-09-28T18:08:55.813Z,16.08
2022-09-28T18:10:57.359Z,12.38
2022-09-28T18:12:58.817Z,15.02
2022-09-28T18:15:00.389Z,14.60
2022-09-28T18:17:01.932Z,19.85
2022-09-28T18:19:03.393Z,16.85
2022-09-28T18:21:05.085Z,15.82
2022-09-28T18:23:06.494Z,12.95
2022-09-28T18:25:08.158Z,12.52
2022-09-28T18:27:09.591Z,12.98
2022-09-28T18:29:11.031Z,13.00
2022-09-28T18:31:14.783Z,13.23
2022-09-28T18:33:16.643Z,17.05
2022-09-28T18:35:22.593Z,13.73
2022-09-28T18:37:24.496Z,15.30
2022-09-28T18:39:26.591Z,15.48
2022-09-28T18:41:28.441Z,14.95
2022-09-28T18:43:33.196Z,18.40
2022-09-28T18:45:37.209Z,13.15
2022-09-28T18:47:39.903Z,18.27
2022-09-28T18:49:46.462Z,13.23
2022-09-28T18:51:48.384Z,13.77
2022-09-28T18:53:50.177Z,13.10
2022-09-28T18:55:51.601Z,13.43
2022-09-28T18:57:53.612Z,14.85
2022-09-28T18:59:55.013Z,15.40
2022-09-28T19:01:56.493Z,14.25
2022-09-28T19:04:03.196Z,13.75
2022-09-28T19:06:09.609Z,15.18
2022-09-28T19:08:11.156Z,14.10
2022-09-28T19:10:12.614Z,14.70
2022-09-28T19:12:14.639Z,15.85
2022-09-28T19:14:16.554Z,15.32
2022-09-28T19:16:26.328Z,15.00
2022-09-28T19:18:30.959Z,16.52
2022-09-28T19:20:33.562Z,15.02
2022-09-28T19:22:35.003Z,16.15
2022-09-28T19:24:36.471Z,18.45
2022-09-28T19:26:37.963Z,18.85
2022-09-28T19:28:42.206Z,15.85
2022-09-28T19:30:43.923Z,14.38
2022-09-28T19:32:45.404Z,13.63
2022-09-28T19:34:46.817Z,14.23
2022-09-28T19:36:48.228Z,12.60
2022-09-28T19:38:51.582Z,14.20
2022-09-28T19:40:53.065Z,18.15
2022-09-28T19:42:54.697Z,14.93
2022-09-28T19:44:56.401Z,16.88
2022-09-28T19:46:59.963Z,16.23
2022-09-28T19:49:02.246Z,15.88
2022-09-28T19:51:06.184Z,14.75
2022-09-28T19:53:07.969Z,15.60
2022-09-28T19:55:09.608Z,14.93
2022-09-28T19:57:13.148Z,18.65
2022-09-28T19:59:15.194Z,17.40
2022-09-28T20:01:16.827Z,16.05
2022-09-28T20:03:21.171Z,16.55
2022-09-28T20:05:22.641Z,15.52
2022-09-28T20:07:24.153Z,13.20
2022-09-28T20:09:25.637Z,10.73
2022-09-28T20:11:27.161Z,14.95
2022-09-28T20:13:36.557Z,14.98
2022-09-28T20:15:38.038Z,13.77
2022-09-28T20:17:39.671Z,15.77
2022-09-28T20:19:41.130Z,15.07
2022-09-28T20:21:42.619Z,16.48
2022-09-28T20:23:44.709Z,15.43
2022-09-28T20:25:46.161Z,12.18
2022-09-28T20:27:47.583Z,13.82
2022-09-28T20:29:48.989Z,15.07
2022-09-28T20:31:51.263Z,13.77
2022-09-28T20:33:53.083Z,15.48
2022-09-28T20:35:54.823Z,12.25
2022-09-28T20:37:57.678Z,16.50
2022-09-28T20:40:01.462Z,16.30
2022-09-28T20:42:02.911Z,13.85
2022-09-28T20:44:06.499Z,13.43
2022-09-28T20:46:10.388Z,16.83
2022-09-28T20:48:11.920Z,13.07
2022-09-28T20:50:13.406Z,15.02
2022-09-28T20:52:14.897Z,15.98
2022-09-28T20:54:16.416Z,13.45
2022-09-28T20:56:19.620Z,15.23
2022-09-28T20:58:21.063Z,13.27
2022-09-28T21:00:22.619Z,15.32
2022-09-28T21:02:24.082Z,14.57
2022-09-28T21:04:25.806Z,11.75
2022-09-28T21:06:30.000Z,12.73
2022-09-28T21:08:31.578Z,13.27
2022-09-28T21:10:33.020Z,11.63
2022-09-28T21:12:34.470Z,13.20
2022-09-28T21:14:36.012Z,12.77
2022-09-28T21:16:38.221Z,14.43
2022-09-28T21:18:40.474Z,16.30
2022-09-28T21:20:50.634Z,15.82
2022-09-28T21:22:52.082Z,13.02
2022-09-28T21:24:53.484Z,13.30
2022-09-28T21:26:55.549Z,13.20
2022-09-28T21:29:04.346Z,12.93
2022-09-28T21:33:09.116Z,12.38
2022-09-28T21:35:10.568Z,13.65
2022-09-28T21:37:11.985Z,12.60
2022-09-28T21:39:14.496Z,19.77
2022-09-28T21:41:15.973Z,25.42
2022-09-28T21:43:17.502Z,15.90
2022-09-28T21:45:19.429Z,13.23
2022-09-28T21:47:20.853Z,15.45
2022-09-28T21:49:22.499Z,13.00
2022-09-28T21:51:24.516Z,23.10
2022-09-28T21:53:28.926Z,16.45
2022-09-28T21:55:30.405Z,19.63
2022-09-28T21:57:31.822Z,17.33
2022-09-28T21:59:33.258Z,11.55
2022-09-28T22:01:34.722Z,12.38
2022-09-28T22:03:36.680Z,12.02
2022-09-28T22:05:38.157Z,11.02
2022-09-28T22:07:41.257Z,10.27
2022-09-28T22:09:42.670Z,9.90
2022-09-28T22:11:44.142Z,9.93
2022-09-28T22:13:51.401Z,12.13
2022-09-28T22:15:54.127Z,10.98
2022-09-28T22:17:55.588Z,11.73
2022-09-28T22:19:57.017Z,14.30
2022-09-28T22:21:58.447Z,13.20
2022-09-28T22:24:02.051Z,13.82
2022-09-28T22:26:08.049Z,10.00
2022-09-28T22:28:09.519Z,10.73
2022-09-28T22:30:11.247Z,12.15
2022-09-28T22:32:12.661Z,10.57
2022-09-28T22:34:14.286Z,11.02
2022-09-28T22:36:16.667Z,10.07
2022-09-28T22:38:19.551Z,9.90
2022-09-28T22:40:20.996Z,10.18
2022-09-28T22:42:22.734Z,12.32
2022-09-28T22:44:24.226Z,11.07
2022-09-28T22:46:28.245Z,11.40
2022-09-28T22:48:29.962Z,12.50
2022-09-28T22:50:31.552Z,14.43
2022-09-28T22:52:32.964Z,10.10
2022-09-28T22:54:34.636Z,10.10
2022-09-28T22:56:36.043Z,10.43
2022-09-28T22:58:38.479Z,12.75
2022-09-28T23:00:40.039Z,11.60
2022-09-28T23:02:41.506Z,11.82
2022-09-28T23:04:42.945Z,10.10
2022-09-28T23:06:44.370Z,11.07
2022-09-28T23:08:47.318Z,14.30
2022-09-28T23:10:49.050Z,17.15
2022-09-28T23:12:52.804Z,12.20
2022-09-28T23:14:54.238Z,12.52
2022-09-28T23:16:55.670Z,10.90
2022-09-28T23:18:57.637Z,14.60
2022-09-28T23:21:01.603Z,16.30
2022-09-28T23:23:03.061Z,14.88
2022-09-28T23:25:04.840Z,10.55
2022-09-28T23:27:07.138Z,13.07
2022-09-28T23:29:10.800Z,11.30
2022-09-28T23:31:23.900Z,12.85
2022-09-28T23:33:25.340Z,13.02
2022-09-28T23:35:26.760Z,9.85
2022-09-28T23:37:28.201Z,10.32
2022-09-28T23:39:29.614Z,9.70
2022-09-28T23:41:31.105Z,10.88
2022-09-28T23:43:32.872Z,13.57
2022-09-28T23:45:34.366Z,10.70
2022-09-28T23:47:37.311Z,10.40
2022-09-28T23:49:38.756Z,9.68
2022-09-28T23:51:40.186Z,9.15
2022-09-28T23:53:41.698Z,9.77
2022-09-28T23:55:43.265Z,17.00
2022-09-28T23:57:45.231Z,12.80
2022-09-28T23:59:46.632Z,11.60
